createdAt,value
2023-01-25T00:02:09.011Z,73.90
2023-01-25T00:04:47.162Z,85.43
2023-01-25T00:07:25.121Z,77.50
2023-01-25T00:10:03.387Z,76.10
2023-01-25T00:12:40.491Z,73.07
2023-01-25T00:15:27.301Z,71.28
2023-01-25T00:18:05.413Z,69.07
2023-01-25T00:20:44.643Z,67.97
2023-01-25T00:23:19.955Z,69.95
2023-01-25T00:26:02.294Z,48.63
2023-01-25T00:28:40.645Z,68.10
2023-01-25T00:31:28.650Z,74.00
2023-01-25T00:34:12.115Z,65.47
2023-01-25T00:36:48.388Z,64.63
2023-01-25T00:39:22.764Z,68.30
2023-01-25T00:42:03.903Z,63.00
2023-01-25T00:44:42.377Z,53.42
2023-01-25T00:47:18.471Z,48.20
2023-01-25T00:49:56.058Z,41.10
2023-01-25T00:52:34.501Z,39.42
2023-01-25T00:55:10.392Z,38.00
2023-01-25T00:57:48.781Z,35.38
2023-01-25T01:00:26.356Z,36.65
2023-01-25T01:03:01.758Z,35.90
2023-01-25T01:05:39.554Z,36.95
2023-01-25T01:08:15.664Z,37.78
2023-01-25T01:10:50.818Z,34.38
2023-01-25T01:13:29.232Z,33.13
2023-01-25T01:16:14.294Z,34.45
2023-01-25T01:18:51.167Z,33.97
2023-01-25T01:21:24.382Z,34.55
2023-01-25T01:24:03.333Z,33.13
2023-01-25T01:26:38.771Z,37.40
2023-01-25T01:29:22.452Z,33.85
2023-01-25T01:32:06.051Z,33.05
2023-01-25T01:34:44.722Z,31.33
2023-01-25T01:37:18.932Z,32.95
2023-01-25T01:40:00.473Z,33.15
2023-01-25T01:42:54.198Z,32.47
2023-01-25T01:45:54.105Z,30.27
2023-01-25T01:48:51.438Z,29.48
2023-01-25T01:51:40.189Z,29.90
2023-01-25T01:54:26.092Z,34.00
2023-01-25T01:57:15.309Z,31.30
2023-01-25T02:00:02.117Z,32.78
2023-01-25T02:02:49.890Z,30.70
2023-01-25T02:05:52.934Z,30.33
2023-01-25T02:08:34.727Z,29.67
2023-01-25T02:11:08.913Z,30.50
2023-01-25T02:13:49.365Z,32.30
2023-01-25T02:16:39.743Z,34.45
2023-01-25T02:19:36.117Z,29.38
2023-01-25T02:22:26.215Z,35.67
2023-01-25T02:25:13.712Z,41.55
2023-01-25T02:27:56.521Z,41.78
2023-01-25T02:30:32.364Z,46.83
2023-01-25T02:33:10.261Z,45.35
2023-01-25T02:35:44.774Z,48.97
2023-01-25T02:38:28.357Z,49.75
2023-01-25T02:41:12.426Z,50.63
2023-01-25T02:43:52.170Z,47.50
2023-01-25T02:46:32.154Z,47.00
2023-01-25T02:49:07.087Z,44.60
2023-01-25T02:51:49.180Z,47.80
2023-01-25T02:54:39.659Z,48.15
2023-01-25T02:57:12.703Z,45.42
2023-01-25T02:59:49.066Z,49.42
2023-01-25T03:02:29.814Z,52.55
2023-01-25T03:05:14.339Z,52.70
2023-01-25T03:07:50.358Z,52.78
2023-01-25T03:10:33.735Z,50.03
2023-01-25T03:13:15.298Z,52.92
2023-01-25T03:15:51.330Z,51.15
2023-01-25T03:18:35.211Z,57.75
2023-01-25T03:21:30.133Z,59.10
2023-01-25T03:24:10.845Z,57.95
2023-01-25T03:27:12.264Z,54.08
2023-01-25T03:29:58.048Z,57.20
2023-01-25T03:32:39.155Z,55.67
2023-01-25T03:35:15.057Z,55.60
2023-01-25T03:38:04.891Z,57.35
2023-01-25T03:40:58.542Z,53.78
2023-01-25T03:43:36.129Z,59.28
2023-01-25T03:46:09.132Z,57.08
2023-01-25T03:48:50.568Z,57.35
2023-01-25T03:51:34.705Z,56.95
2023-01-25T03:54:10.743Z,56.78
2023-01-25T03:56:46.335Z,55.65
2023-01-25T03:59:34.387Z,48.58
2023-01-25T04:02:14.815Z,54.70
2023-01-25T04:04:55.209Z,53.42
2023-01-25T04:07:31.097Z,53.08
2023-01-25T04:10:09.564Z,50.92
2023-01-25T04:12:45.988Z,53.53
2023-01-25T04:15:26.115Z,52.25
2023-01-25T04:18:04.075Z,50.70
2023-01-25T04:20:48.125Z,51.20
2023-01-25T04:23:21.163Z,50.25
2023-01-25T04:26:10.483Z,47.58
2023-01-25T04:28:50.875Z,47.50
2023-01-25T04:31:23.384Z,50.75
2023-01-25T04:33:58.441Z,49.65
2023-01-25T04:36:36.921Z,52.22
2023-01-25T04:39:17.625Z,46.70
2023-01-25T04:41:47.915Z,51.10
2023-01-25T04:44:33.425Z,36.75
2023-01-25T04:47:17.212Z,44.63
2023-01-25T04:52:31.093Z,39.38
2023-01-25T04:55:09.810Z,49.30
2023-01-25T04:57:50.445Z,46.22
2023-01-25T05:00:29.154Z,47.72
2023-01-25T05:03:05.144Z,48.63
2023-01-25T05:05:43.146Z,50.67
2023-01-25T05:08:19.519Z,48.40
2023-01-25T05:10:52.745Z,47.05
2023-01-25T05:13:59.531Z,46.22
2023-01-25T05:16:48.428Z,49.85
2023-01-25T05:19:20.371Z,49.72
2023-01-25T05:22:21.771Z,51.53
2023-01-25T05:25:30.255Z,47.42
2023-01-25T05:28:06.993Z,48.90
2023-01-25T05:30:59.500Z,45.67
2023-01-25T05:33:42.929Z,45.42
2023-01-25T05:36:23.793Z,48.83
2023-01-25T05:38:59.888Z,51.75
2023-01-25T05:41:40.249Z,49.50
2023-01-25T05:44:23.066Z,49.75
2023-01-25T05:47:07.453Z,48.33
2023-01-25T05:49:40.400Z,53.05
2023-01-25T05:52:24.429Z,59.85
2023-01-25T05:55:07.865Z,54.58
2023-01-25T05:57:45.057Z,52.90
2023-01-25T06:00:17.921Z,54.33
2023-01-25T06:02:56.185Z,58.65
2023-01-25T06:05:36.770Z,64.43
2023-01-25T06:08:15.899Z,63.75
2023-01-25T06:11:09.266Z,64.18
2023-01-25T06:13:52.760Z,63.80
2023-01-25T06:16:34.120Z,59.27
2023-01-25T06:19:25.579Z,57.50
2023-01-25T06:22:20.962Z,56.92
2023-01-25T06:25:02.266Z,61.88
2023-01-25T06:27:43.215Z,59.72
2023-01-25T06:30:23.349Z,56.65
2023-01-25T06:33:00.507Z,59.90
2023-01-25T06:35:34.658Z,57.28
2023-01-25T06:38:15.907Z,56.10
2023-01-25T06:40:56.904Z,57.55
2023-01-25T06:43:38.094Z,60.30
2023-01-25T06:46:19.449Z,61.97
2023-01-25T06:49:18.165Z,59.60
2023-01-25T06:52:01.402Z,59.28
2023-01-25T06:54:41.398Z,60.85
2023-01-25T06:57:21.790Z,62.22
2023-01-25T07:00:02.330Z,62.80
2023-01-25T07:02:40.321Z,64.93
2023-01-25T07:05:13.265Z,63.45
2023-01-25T07:08:01.872Z,68.88
2023-01-25T07:10:44.604Z,66.88
2023-01-25T07:13:25.225Z,74.75
2023-01-25T07:16:08.132Z,69.70
2023-01-25T07:18:44.872Z,58.15
2023-01-25T07:21:27.493Z,80.00
2023-01-25T07:24:08.282Z,84.13
2023-01-25T07:26:40.989Z,89.70
2023-01-25T07:29:24.257Z,92.43
2023-01-25T07:32:06.767Z,89.43
2023-01-25T07:34:52.741Z,84.65
2023-01-25T07:37:36.093Z,83.65
2023-01-25T07:40:12.040Z,90.90
2023-01-25T07:42:50.743Z,88.55
2023-01-25T07:45:35.162Z,99.68
2023-01-25T07:48:16.454Z,88.90
2023-01-25T07:51:07.265Z,80.38
2023-01-25T07:53:48.166Z,85.57
2023-01-25T07:56:20.606Z,84.03
2023-01-25T07:58:58.149Z,56.13
2023-01-25T08:01:37.902Z,74.25
2023-01-25T08:04:11.169Z,78.93
2023-01-25T08:06:46.744Z,72.03
2023-01-25T08:09:25.147Z,77.93
2023-01-25T08:12:08.565Z,76.18
2023-01-25T08:14:51.927Z,71.45
2023-01-25T08:17:37.325Z,75.80
2023-01-25T08:20:14.156Z,72.45
2023-01-25T08:22:54.981Z,68.53
2023-01-25T08:25:30.042Z,76.45
2023-01-25T08:28:08.039Z,76.68
2023-01-25T08:30:56.579Z,78.40
2023-01-25T08:33:33.331Z,78.32
2023-01-25T08:36:09.001Z,72.78
2023-01-25T08:38:53.167Z,78.05
2023-01-25T08:41:31.203Z,88.65
2023-01-25T08:44:03.741Z,76.15
2023-01-25T08:46:35.416Z,78.95
2023-01-25T08:49:10.913Z,78.90
2023-01-25T08:51:48.297Z,83.30
2023-01-25T08:54:25.373Z,81.22
2023-01-25T08:57:06.376Z,76.80
2023-01-25T08:59:39.393Z,75.93
2023-01-25T09:02:25.046Z,67.63
2023-01-25T09:05:03.351Z,69.03
2023-01-25T09:07:40.714Z,69.18
2023-01-25T09:10:13.151Z,65.38
2023-01-25T09:12:47.633Z,67.68
2023-01-25T09:15:33.724Z,66.95
2023-01-25T09:18:08.792Z,64.72
2023-01-25T09:20:54.854Z,66.72
2023-01-25T09:23:31.659Z,61.35
2023-01-25T09:26:10.016Z,60.13
2023-01-25T09:28:45.424Z,61.90
2023-01-25T09:31:22.447Z,62.85
2023-01-25T09:34:21.702Z,58.65
2023-01-25T09:36:54.933Z,59.00
2023-01-25T09:39:37.690Z,56.17
2023-01-25T09:42:25.002Z,51.05
2023-01-25T09:45:35.466Z,52.13
2023-01-25T09:48:19.790Z,53.17
2023-01-25T09:51:15.347Z,55.60
2023-01-25T09:54:04.260Z,55.95
2023-01-25T09:56:43.702Z,56.38
2023-01-25T09:59:23.142Z,54.67
2023-01-25T10:02:45.350Z,34.58
2023-01-25T10:05:33.939Z,23.67
2023-01-25T10:08:20.847Z,21.95
2023-01-25T10:11:02.194Z,24.33
2023-01-25T10:13:38.409Z,27.67
2023-01-25T10:16:25.821Z,23.58
2023-01-25T10:19:24.125Z,20.70
2023-01-25T10:22:08.362Z,32.05
2023-01-25T10:24:59.176Z,43.72
2023-01-25T10:27:50.477Z,40.13
2023-01-25T10:30:35.935Z,35.08
2023-01-25T10:33:23.467Z,20.30
2023-01-25T10:35:58.670Z,14.68
2023-01-25T10:38:42.399Z,14.73
2023-01-25T10:41:25.054Z,14.80
2023-01-25T10:44:18.272Z,16.13
2023-01-25T10:46:58.248Z,16.23
2023-01-25T10:49:43.254Z,19.10
2023-01-25T10:52:26.024Z,14.93
2023-01-25T10:55:26.224Z,13.38
2023-01-25T10:58:06.179Z,13.73
2023-01-25T11:00:49.109Z,13.18
2023-01-25T11:03:27.563Z,14.95
2023-01-25T11:05:58.033Z,15.90
2023-01-25T11:08:38.647Z,14.27
2023-01-25T11:11:31.663Z,14.55
2023-01-25T11:14:27.196Z,13.60
2023-01-25T11:16:58.925Z,14.05
2023-01-25T11:19:42.107Z,15.50
2023-01-25T11:22:30.039Z,15.48
2023-01-25T11:25:27.976Z,14.45
2023-01-25T11:28:23.435Z,13.50
2023-01-25T11:31:08.817Z,14.20
2023-01-25T11:33:38.483Z,13.27
2023-01-25T11:36:51.607Z,14.55
2023-01-25T11:39:39.293Z,16.02
2023-01-25T11:43:00.809Z,14.95
2023-01-25T11:46:01.715Z,14.38
2023-01-25T11:49:24.561Z,15.27
2023-01-25T11:52:38.608Z,14.90
2023-01-25T11:55:34.016Z,12.27
2023-01-25T11:58:26.819Z,14.80
2023-01-25T12:01:02.144Z,14.63
2023-01-25T12:04:17.690Z,13.40
2023-01-25T12:07:03.964Z,16.15
2023-01-25T12:09:51.301Z,15.77
2023-01-25T12:12:32.044Z,14.82
2023-01-25T12:15:22.598Z,14.65
2023-01-25T12:18:22.804Z,14.85
2023-01-25T12:21:31.196Z,14.90
2023-01-25T12:24:32.357Z,17.88
2023-01-25T12:27:37.486Z,19.88
2023-01-25T12:30:35.959Z,19.85
2023-01-25T12:33:34.008Z,20.77
2023-01-25T12:36:20.376Z,22.13
2023-01-25T12:39:07.043Z,20.15
2023-01-25T12:41:46.444Z,20.58
2023-01-25T12:44:40.314Z,20.60
2023-01-25T12:47:14.917Z,19.98
2023-01-25T12:50:12.770Z,20.23
2023-01-25T12:53:03.434Z,19.85
2023-01-25T12:55:44.424Z,20.23
2023-01-25T12:58:37.717Z,19.38
2023-01-25T13:01:41.653Z,19.85
2023-01-25T13:04:31.797Z,18.98
2023-01-25T13:07:47.075Z,18.70
2023-01-25T13:10:42.022Z,17.95
2023-01-25T13:13:34.665Z,20.23
2023-01-25T13:16:33.887Z,18.98
2023-01-25T13:19:21.763Z,19.38
2023-01-25T13:22:03.074Z,19.30
2023-01-25T13:25:08.106Z,20.17
2023-01-25T13:27:48.062Z,19.55
2023-01-25T13:30:50.849Z,20.92
2023-01-25T13:33:41.423Z,20.35
2023-01-25T13:36:45.907Z,18.83
2023-01-25T13:42:31.239Z,20.55
2023-01-25T13:45:18.793Z,21.92
2023-01-25T13:48:05.890Z,26.38
2023-01-25T13:51:05.648Z,24.95
2023-01-25T13:53:46.131Z,22.45
2023-01-25T13:56:41.872Z,18.77
2023-01-25T13:59:31.089Z,19.58
2023-01-25T14:02:09.801Z,22.48
2023-01-25T14:05:01.286Z,24.00
2023-01-25T14:07:42.943Z,20.60
2023-01-25T14:10:26.288Z,21.67
2023-01-25T14:13:13.663Z,20.52
2023-01-25T14:16:06.041Z,21.25
2023-01-25T14:18:51.849Z,24.23
2023-01-25T14:21:26.069Z,22.83
2023-01-25T14:24:14.487Z,21.05
2023-01-25T14:26:54.665Z,20.65
2023-01-25T14:29:33.300Z,21.00
2023-01-25T14:32:23.294Z,25.13
2023-01-25T14:35:22.796Z,20.55
2023-01-25T14:38:00.405Z,20.40
2023-01-25T14:40:33.932Z,20.77
2023-01-25T14:43:16.963Z,23.23
2023-01-25T14:45:57.325Z,22.13
2023-01-25T14:48:41.031Z,22.08
2023-01-25T14:51:21.900Z,19.08
2023-01-25T14:54:09.402Z,20.30
2023-01-25T14:56:47.337Z,23.52
2023-01-25T14:59:32.807Z,22.45
2023-01-25T15:02:29.133Z,23.40
2023-01-25T15:05:24.201Z,22.80
2023-01-25T15:08:16.799Z,23.63
2023-01-25T15:11:38.630Z,24.20
2023-01-25T15:14:27.545Z,25.50
2023-01-25T15:17:08.644Z,25.58
2023-01-25T15:19:48.961Z,29.17
2023-01-25T15:22:25.292Z,28.92
2023-01-25T15:25:04.361Z,32.20
2023-01-25T15:27:47.538Z,31.70
2023-01-25T15:30:26.220Z,34.20
2023-01-25T15:33:06.765Z,32.67
2023-01-25T15:35:39.005Z,29.63
2023-01-25T15:38:20.545Z,29.30
2023-01-25T15:40:51.310Z,31.52
2023-01-25T15:43:34.328Z,34.65
2023-01-25T15:46:15.369Z,34.92
2023-01-25T15:48:49.603Z,31.70
2023-01-25T15:51:32.253Z,31.13
2023-01-25T15:54:11.503Z,29.60
2023-01-25T15:56:51.441Z,27.73
2023-01-25T15:59:25.009Z,27.40
2023-01-25T16:04:37.832Z,22.80
2023-01-25T16:07:10.456Z,25.05
2023-01-25T16:09:45.241Z,24.07
2023-01-25T16:12:25.543Z,26.80
2023-01-25T16:14:59.746Z,26.20
2023-01-25T16:17:38.152Z,25.08
2023-01-25T16:20:21.434Z,23.50
2023-01-25T16:23:02.093Z,30.13
2023-01-25T16:25:40.000Z,31.23
2023-01-25T16:28:22.599Z,31.17
2023-01-25T16:31:00.207Z,35.25
2023-01-25T16:33:41.129Z,42.17
2023-01-25T16:36:29.459Z,41.08
2023-01-25T16:39:12.339Z,40.28
2023-01-25T16:41:57.761Z,38.75
2023-01-25T16:44:38.691Z,37.17
2023-01-25T16:47:23.570Z,38.65
2023-01-25T16:50:01.313Z,34.30
2023-01-25T16:52:35.774Z,38.65
2023-01-25T16:55:08.062Z,35.90
2023-01-25T16:57:49.444Z,37.17
2023-01-25T17:00:27.595Z,39.85
2023-01-25T17:03:15.618Z,37.58
2023-01-25T17:06:00.914Z,35.60
2023-01-25T17:08:36.144Z,37.78
2023-01-25T17:11:14.714Z,45.60
2023-01-25T17:13:54.085Z,47.15
2023-01-25T17:16:28.426Z,45.30
2023-01-25T17:19:16.950Z,45.13
2023-01-25T17:21:59.076Z,43.60
2023-01-25T17:24:37.369Z,42.83
2023-01-25T17:27:23.929Z,41.22
2023-01-25T17:30:01.684Z,38.97
2023-01-25T17:32:42.411Z,40.97
2023-01-25T17:35:17.105Z,41.83
2023-01-25T17:38:08.537Z,48.30
2023-01-25T17:40:43.910Z,49.00
2023-01-25T17:43:34.562Z,47.30
2023-01-25T17:46:29.844Z,49.53
2023-01-25T17:49:08.386Z,44.17
2023-01-25T17:51:42.059Z,47.72
2023-01-25T17:54:13.245Z,45.15
2023-01-25T17:56:52.696Z,46.22
2023-01-25T17:59:35.453Z,51.00
2023-01-25T18:02:03.349Z,44.30
2023-01-25T18:04:30.089Z,47.30
2023-01-25T18:06:56.868Z,49.42
2023-01-25T18:09:31.547Z,51.88
2023-01-25T18:12:02.139Z,50.90
2023-01-25T18:17:13.008Z,46.25
2023-01-25T18:19:57.090Z,46.00
2023-01-25T18:22:42.565Z,48.35
2023-01-25T18:25:46.777Z,49.38
2023-01-25T18:28:25.702Z,50.10
2023-01-25T18:31:11.442Z,47.67
2023-01-25T18:33:54.663Z,47.75
2023-01-25T18:36:32.155Z,40.85
2023-01-25T18:39:15.752Z,42.60
2023-01-25T18:41:56.723Z,42.58
2023-01-25T18:44:37.373Z,42.35
2023-01-25T18:47:17.111Z,47.55
2023-01-25T18:50:02.003Z,45.38
2023-01-25T18:52:42.668Z,44.03
2023-01-25T18:55:23.615Z,49.58
2023-01-25T18:58:04.077Z,47.50
2023-01-25T19:00:53.107Z,47.92
2023-01-25T19:03:30.958Z,46.17
2023-01-25T19:06:08.982Z,44.38
2023-01-25T19:08:44.092Z,44.83
2023-01-25T19:11:29.667Z,47.38
2023-01-25T19:14:13.554Z,44.97
2023-01-25T19:16:54.897Z,44.92
2023-01-25T19:19:26.665Z,46.97
2023-01-25T19:22:13.112Z,44.88
2023-01-25T19:25:02.273Z,43.03
2023-01-25T19:27:39.513Z,42.05
2023-01-25T19:30:17.991Z,43.55
2023-01-25T19:33:03.330Z,42.25
2023-01-25T19:35:43.945Z,39.30
2023-01-25T19:38:24.420Z,39.95
2023-01-25T19:41:05.329Z,37.88
2023-01-25T19:43:41.572Z,39.08
2023-01-25T19:46:22.269Z,36.95
2023-01-25T19:49:02.972Z,39.42
2023-01-25T19:51:39.769Z,34.20
2023-01-25T19:54:18.676Z,35.97
2023-01-25T19:56:58.497Z,38.40
2023-01-25T19:59:35.887Z,37.13
2023-01-25T20:02:18.485Z,38.70
2023-01-25T20:05:00.135Z,41.97
2023-01-25T20:07:45.060Z,40.50
2023-01-25T20:10:20.337Z,40.63
2023-01-25T20:13:03.330Z,46.30
2023-01-25T20:15:58.297Z,47.03
2023-01-25T20:18:43.856Z,42.28
2023-01-25T20:21:19.427Z,39.22
2023-01-25T20:23:56.140Z,40.72
2023-01-25T20:26:37.433Z,40.10
2023-01-25T20:29:17.731Z,36.35
2023-01-25T20:31:57.663Z,35.60
2023-01-25T20:34:43.540Z,34.03
2023-01-25T20:37:25.736Z,34.88
2023-01-25T20:40:01.567Z,36.67
2023-01-25T20:42:36.687Z,36.05
2023-01-25T20:45:17.077Z,37.50
2023-01-25T20:47:58.071Z,36.85
2023-01-25T20:50:36.135Z,36.75
2023-01-25T20:53:19.049Z,33.35
2023-01-25T20:56:00.810Z,33.80
2023-01-25T20:58:41.224Z,34.63
2023-01-25T21:01:29.644Z,35.60
2023-01-25T21:04:02.893Z,35.05
2023-01-25T21:06:34.961Z,40.58
2023-01-25T21:09:10.069Z,40.97
2023-01-25T21:11:49.889Z,39.42
2023-01-25T21:14:27.766Z,42.70
2023-01-25T21:17:00.718Z,39.45
2023-01-25T21:19:35.930Z,35.88
2023-01-25T21:22:24.559Z,34.85
2023-01-25T21:25:08.455Z,31.80
2023-01-25T21:27:49.242Z,35.40
2023-01-25T21:30:28.398Z,34.60
2023-01-25T21:33:03.475Z,35.53
2023-01-25T21:35:33.825Z,35.65
2023-01-25T21:38:11.661Z,36.80
2023-01-25T21:40:57.562Z,36.10
2023-01-25T21:43:51.709Z,37.53
2023-01-25T21:46:37.688Z,35.65
2023-01-25T21:49:29.437Z,34.42
2023-01-25T21:52:03.728Z,36.00
2023-01-25T21:54:45.074Z,33.92
2023-01-25T21:57:25.367Z,35.97
2023-01-25T22:00:00.629Z,38.70
2023-01-25T22:02:37.085Z,41.70
2023-01-25T22:05:11.854Z,41.83
2023-01-25T22:07:49.700Z,45.60
2023-01-25T22:10:24.955Z,54.58
2023-01-25T22:13:00.706Z,54.42
2023-01-25T22:15:41.430Z,51.90
2023-01-25T22:18:16.199Z,51.00
2023-01-25T22:21:06.928Z,49.50
2023-01-25T22:23:46.768Z,45.67
2023-01-25T22:26:24.591Z,61.33
2023-01-25T22:29:09.040Z,59.85
2023-01-25T22:31:44.690Z,58.97
2023-01-25T22:34:25.170Z,49.28
2023-01-25T22:36:57.789Z,47.88
2023-01-25T22:39:42.331Z,48.23
2023-01-25T22:42:20.359Z,44.83
2023-01-25T22:45:03.641Z,43.85
2023-01-25T22:47:41.953Z,46.27
2023-01-25T22:50:24.753Z,45.25
2023-01-25T22:53:08.026Z,41.08
2023-01-25T22:55:48.318Z,40.88
2023-01-25T22:58:30.297Z,41.78
2023-01-25T23:01:22.914Z,39.60
2023-01-25T23:04:09.452Z,38.85
2023-01-25T23:06:44.457Z,36.97
2023-01-25T23:09:19.709Z,40.58
2023-01-25T23:12:00.483Z,38.17
2023-01-25T23:14:55.405Z,39.03
2023-01-25T23:17:57.628Z,36.03
2023-01-25T23:20:46.323Z,38.10
2023-01-25T23:23:35.103Z,37.13
2023-01-25T23:26:15.326Z,35.85
2023-01-25T23:29:04.009Z,37.78
2023-01-25T23:31:45.631Z,38.60
2023-01-25T23:34:17.329Z,44.70
2023-01-25T23:36:59.069Z,45.13
2023-01-25T23:39:44.760Z,46.17
2023-01-25T23:42:24.959Z,43.08
2023-01-25T23:45:02.681Z,44.85
2023-01-25T23:47:43.358Z,44.63
2023-01-25T23:50:20.345Z,44.65
2023-01-25T23:53:05.270Z,46.05
2023-01-25T23:55:40.319Z,45.35
2023-01-25T23:58:19.948Z,47.63
